Time;durP1;ratioP1;P1;durP2;ratioP2;P2;SDS_P1;SDS_P2;PMS_P1;PMS_P2;Temp;Humidity;BMP_temperature;BMP_pressure;BME280_temperature;BME280_humidity;BME280_pressure;Samples;Min_cycle;Max_cycle;Signal;HPM_P1;HPM_P2
2021/05/29 00:01:35;;;;;;;5.88;5.28;;;11.40;45.90;217.30;162114.00;;;;5029647;28;20435;-82
2021/05/29 00:04:04;;;;;;;7.28;5.75;;;11.40;46.30;12.50;101201.00;;;;5047434;28;20423;-82
2021/05/29 00:06:32;;;;;;;5.70;5.10;;;11.30;45.80;217.30;162092.00;;;;5032790;28;20434;-80
2021/05/29 00:09:00;;;;;;;7.00;5.70;;;11.30;46.30;217.30;162082.00;;;;5035175;28;20423;-80
2021/05/29 00:11:28;;;;;;;6.32;5.10;;;11.30;45.20;12.50;101211.00;;;;5042754;28;20921;-78
2021/05/29 00:13:57;;;;;;;9.15;5.00;;;11.50;44.60;12.50;69035.00;;;;5052256;28;20431;-78
2021/05/29 00:16:24;;;;;;;6.67;4.70;;;11.40;42.80;217.30;129561.00;;;;5043543;28;20431;-79
2021/05/29 00:18:52;;;;;;;5.50;5.00;;;11.40;41.90;12.50;101206.00;;;;5039102;28;20919;-80
2021/05/29 00:21:20;;;;;;;7.57;4.77;;;11.50;41.90;12.30;101205.00;;;;5045274;28;20228;-79
2021/05/29 00:23:48;;;;;;;5.90;5.30;;;11.40;43.90;12.10;101175.00;;;;5037225;28;20449;-79
2021/05/29 00:26:16;;;;;;;6.15;5.60;;;11.20;45.60;12.30;101205.00;;;;5045385;28;20465;-80
2021/05/29 00:28:45;;;;;;;6.20;4.57;;;11.20;46.80;12.10;101199.00;;;;5051225;28;20182;-79
2021/05/29 00:31:13;;;;;;;7.03;4.87;;;11.20;47.80;217.30;161840.00;;;;5063502;28;21207;-79
2021/05/29 00:33:41;;;;;;;7.37;5.53;;;11.10;45.70;11.90;68903.00;;;;5039290;28;20535;-79
2021/05/29 00:36:08;;;;;;;6.10;5.20;;;11.00;47.60;11.80;101233.00;;;;5037857;28;20508;-79
2021/05/29 00:38:36;;;;;;;5.10;4.60;;;10.90;49.40;11.80;101209.00;;;;5051854;28;20498;-79
2021/05/29 00:41:08;;;;;;;5.37;4.70;;;10.80;50.30;11.70;101213.00;;;;5048845;28;20524;-82
2021/05/29 00:43:36;;;;;;;5.40;4.90;;;10.60;51.30;11.70;101217.00;;;;5047561;28;20488;-81
2021/05/29 00:46:06;;;;;;;5.50;5.00;;;10.50;52.00;11.60;101219.00;;;;5048096;28;20509;-79
2021/05/29 00:48:34;;;;;;;5.07;4.57;;;10.40;52.40;11.60;101215.00;;;;5038039;28;20460;-81
2021/05/29 00:51:03;;;;;;;5.57;5.07;;;10.40;53.50;11.80;101225.00;;;;5031073;28;20433;-80
2021/05/29 00:53:33;;;;;;;6.47;5.50;;;10.50;54.00;11.60;101219.00;;;;5033623;28;20202;-80
2021/05/29 00:56:04;;;;;;;5.63;4.53;;;10.50;53.90;11.50;101213.00;;;;5048934;28;21756;-81
2021/05/29 00:58:33;;;;;;;5.67;5.17;;;10.30;54.50;11.40;101218.00;;;;5029135;28;20461;-81
2021/05/29 01:01:01;;;;;;;7.80;5.13;;;10.30;56.10;11.30;101220.00;;;;5031014;28;20480;-82
2021/05/29 01:03:33;;;;;;;5.77;5.17;;;10.20;57.10;11.30;68760.00;;;;5032602;28;20452;-81
2021/05/29 01:06:02;;;;;;;5.90;4.90;;;10.10;58.30;11.20;101227.00;;;;5032886;28;20480;-79
2021/05/29 01:08:30;;;;;;;6.17;4.43;;;10.10;58.60;11.20;101228.00;;;;5050484;28;20459;-81
2021/05/29 01:10:57;;;;;;;6.50;5.80;;;10.10;57.10;11.10;101247.00;;;;5040525;28;20512;-81
2021/05/29 01:13:29;;;;;;;6.78;5.32;;;10.10;57.80;217.30;161614.00;;;;5044807;28;20431;-81
2021/05/29 01:16:03;;;;;;;6.45;5.85;;;10.20;55.80;217.30;161686.00;;;;5043808;28;20430;-82
2021/05/29 01:18:33;;;;;;;6.68;6.07;;;10.40;53.10;217.30;161717.00;;;;5042200;28;20418;-80
2021/05/29 01:21:02;;;;;;;7.63;6.90;;;10.60;50.90;11.40;101217.00;;;;5049714;28;20210;-80
2021/05/29 01:23:31;;;;;;;8.77;7.75;;;10.50;50.40;11.60;68839.00;;;;5042150;28;20934;-79
2021/05/29 01:25:59;;;;;;;10.10;8.80;;;10.60;50.10;11.40;101215.00;;;;5040593;28;20328;-82
2021/05/29 01:28:29;;;;;;;10.50;9.55;;;10.50;49.30;11.60;101223.00;;;;5046975;28;20407;-80
2021/05/29 01:31:02;;;;;;;8.73;7.82;;;10.60;49.40;217.30;161733.00;;;;5041310;28;20499;-80
2021/05/29 01:33:33;;;;;;;9.50;8.35;;;10.70;49.40;11.70;101203.00;;;;5040739;28;20434;-80
2021/05/29 01:36:04;;;;;;;8.80;7.87;;;10.60;49.80;11.40;101211.00;;;;5041516;28;20218;-78
2021/05/29 01:38:34;;;;;;;8.77;7.97;;;10.40;51.60;217.30;161545.00;;;;5039073;28;20448;-77
2021/05/29 01:41:06;;;;;;;10.30;9.20;;;10.30;51.80;217.30;161491.00;;;;5046512;28;20461;-82
2021/05/29 01:43:36;;;;;;;8.40;7.60;;;10.20;52.50;52.70;161487.00;;;;5051338;28;20449;-79
2021/05/29 01:46:04;;;;;;;8.93;8.03;;;10.10;53.60;217.30;161456.00;;;;5070961;28;20484;-77
2021/05/29 01:48:34;;;;;;;10.23;8.80;;;10.00;54.00;11.00;101202.00;;;;5054245;28;20444;-82
2021/05/29 01:51:03;;;;;;;9.00;8.20;;;10.00;55.10;10.90;101200.00;;;;5051944;28;20460;-78
2021/05/29 01:53:31;;;;;;;9.10;8.30;;;9.90;56.30;217.30;161390.00;;;;5053538;28;20440;-78
2021/05/29 01:56:01;;;;;;;8.47;7.77;;;9.80;56.90;10.90;101210.00;;;;5052614;28;20576;-78
2021/05/29 01:58:29;;;;;;;9.10;8.20;;;9.80;57.10;217.30;161374.00;;;;5051722;28;20465;-77
2021/05/29 02:00:57;;;;;;;8.73;7.90;;;9.70;57.40;10.80;68664.00;;;;5070284;28;20441;-78
2021/05/29 02:03:25;;;;;;;7.80;7.13;;;9.70;57.80;10.80;101212.00;;;;5056695;28;20459;-78
2021/05/29 02:05:53;;;;;;;8.60;7.80;;;9.70;58.50;10.70;101207.00;;;;5054619;28;20480;-78
2021/05/29 02:08:22;;;;;;;8.50;7.23;;;9.60;59.20;10.70;101203.00;;;;5058289;28;20463;-77
2021/05/29 02:10:50;;;;;;;9.63;7.80;;;9.60;59.50;10.70;101201.00;;;;5058133;28;20476;-80
2021/05/29 02:13:25;;;;;;;8.40;7.60;;;9.60;60.30;10.60;101212.00;;;;5066572;28;20495;-79
2021/05/29 02:15:54;;;;;;;8.13;7.37;;;9.50;60.30;10.50;101199.00;;;;5053028;28;20495;-82
2021/05/29 02:18:23;;;;;;;7.50;6.90;;;9.50;60.30;10.50;101212.00;;;;5053093;28;20460;-79
2021/05/29 02:20:54;;;;;;;9.97;7.47;;;9.40;60.60;10.50;101206.00;;;;5052405;28;20527;-80
2021/05/29 02:23:24;;;;;;;8.60;7.67;;;9.40;61.00;10.50;101199.00;;;;5038368;28;20452;-81
2021/05/29 02:25:56;;;;;;;7.43;6.77;;;9.40;61.10;10.50;101204.00;;;;5032149;28;20484;-82
2021/05/29 02:28:26;;;;;;;9.23;8.33;;;9.30;60.80;10.40;101201.00;;;;5037545;28;20462;-79
2021/05/29 02:30:54;;;;;;;16.37;7.53;;;9.30;61.70;10.40;101219.00;;;;5036946;28;20469;-79
2021/05/29 02:33:23;;;;;;;8.90;8.10;;;9.30;63.10;10.30;101205.00;;;;5030569;28;20457;-81
2021/05/29 02:35:52;;;;;;;9.07;7.97;;;9.20;62.90;10.30;101205.00;;;;5030031;28;20481;-81
2021/05/29 02:38:21;;;;;;;8.73;7.87;;;9.10;64.00;10.30;101202.00;;;;5044934;28;20534;-79
2021/05/29 02:40:50;;;;;;;9.50;8.70;;;9.10;64.10;10.30;101207.00;;;;5030916;28;20535;-80
2021/05/29 02:43:18;;;;;;;9.97;8.97;;;9.10;64.60;10.20;101213.00;;;;5026042;28;20453;-79
2021/05/29 02:45:47;;;;;;;8.83;7.93;;;9.10;65.00;10.10;101221.00;;;;5025485;28;21001;-80
2021/05/29 02:48:16;;;;;;;8.57;7.67;;;9.00;65.30;10.10;101207.00;;;;5034797;28;20461;-80
2021/05/29 02:50:45;;;;;;;11.37;9.00;;;8.90;65.70;10.10;101199.00;;;;5028081;28;20475;-81
2021/05/29 02:53:15;;;;;;;10.47;9.47;;;8.80;66.20;10.00;101201.00;;;;5028310;28;22149;-81
2021/05/29 02:55:44;;;;;;;12.30;10.30;;;8.80;66.70;10.00;101205.00;;;;5030076;28;20468;-81
2021/05/29 02:58:12;;;;;;;11.80;9.70;;;8.80;66.70;10.00;101198.00;;;;5028319;28;20469;-82
2021/05/29 03:00:43;;;;;;;10.67;9.67;;;8.70;66.40;10.00;101192.00;;;;5030103;28;20833;-81
2021/05/29 03:03:13;;;;;;;10.83;9.60;;;8.70;66.90;10.00;101183.00;;;;5045825;28;20441;-81
2021/05/29 03:05:42;;;;;;;10.20;9.20;;;8.70;67.10;217.30;160966.00;;;;5044654;28;20563;-81
2021/05/29 03:08:13;;;;;;;10.90;9.90;;;8.70;67.60;9.90;101199.00;;;;5027329;28;20535;-82
2021/05/29 03:10:42;;;;;;;11.67;9.53;;;8.60;67.80;9.80;101181.00;;;;5039628;28;20477;-80
2021/05/29 03:13:10;;;;;;;10.53;9.43;;;8.60;68.10;9.80;101179.00;;;;5047111;28;20480;-82
2021/05/29 03:15:39;;;;;;;11.27;9.87;;;8.50;68.20;9.70;101194.00;;;;5047385;28;20487;-81
2021/05/29 03:18:07;;;;;;;10.93;9.60;;;8.50;68.50;9.70;101186.00;;;;5035834;28;20453;-82
2021/05/29 03:20:37;;;;;;;10.60;9.17;;;8.50;68.60;9.70;101204.00;;;;5045856;28;20496;-80
2021/05/29 03:23:06;;;;;;;10.67;9.57;;;8.50;68.10;9.70;101216.00;;;;5032182;28;20555;-82
2021/05/29 03:25:34;;;;;;;9.80;8.80;;;8.50;68.00;52.70;160859.00;;;;5056648;28;21176;-77
2021/05/29 03:28:04;;;;;;;11.10;10.00;;;8.50;67.80;9.70;101206.00;;;;5029502;28;20529;-81
2021/05/29 03:30:32;;;;;;;12.63;9.60;;;8.50;68.00;9.60;101207.00;;;;5031910;28;21603;-80
2021/05/29 03:33:00;;;;;;;11.57;10.20;;;8.50;68.20;9.70;101191.00;;;;5030767;28;20993;-82
2021/05/29 03:35:29;;;;;;;9.60;8.60;;;8.50;68.00;9.70;101207.00;;;;5030171;28;21110;-82
2021/05/29 03:37:58;;;;;;;11.47;10.33;;;8.70;68.20;9.70;101206.00;;;;5030971;28;20543;-81
2021/05/29 03:40:26;;;;;;;10.60;9.60;;;8.60;67.70;9.80;101221.00;;;;5034341;28;21038;-83
2021/05/29 03:42:54;;;;;;;10.90;9.80;;;8.60;67.80;9.80;101207.00;;;;5029226;28;20459;-82
2021/05/29 03:45:22;;;;;;;10.73;9.73;;;8.60;67.90;9.80;101220.00;;;;5044177;28;20473;-82
2021/05/29 03:47:51;;;;;;;11.23;8.73;;;8.70;67.90;9.90;101213.00;;;;5029107;28;20941;-81
2021/05/29 03:50:22;;;;;;;10.57;9.57;;;8.70;67.80;10.00;101212.00;;;;5029874;28;20468;-81
2021/05/29 03:52:50;;;;;;;9.97;8.97;;;8.80;67.60;10.00;101217.00;;;;5029100;28;20487;-81
2021/05/29 03:55:22;;;;;;;10.10;8.30;;;8.80;67.30;10.10;101218.00;;;;5045781;28;20474;-80
2021/05/29 03:57:52;;;;;;;9.63;8.73;;;8.90;67.20;10.20;101220.00;;;;5029229;28;20449;-81
2021/05/29 04:00:22;;;;;;;9.57;8.37;;;8.90;67.10;10.30;101243.00;;;;5030667;28;20460;-81
2021/05/29 04:02:51;;;;;;;8.20;7.50;;;9.00;67.10;10.40;101250.00;;;;5029776;28;20441;-82
2021/05/29 04:05:20;;;;;;;10.70;8.03;;;9.00;67.00;10.40;101240.00;;;;5028063;28;20592;-80
2021/05/29 04:07:50;;;;;;;9.83;8.90;;;9.10;66.50;10.50;101235.00;;;;5029601;28;21285;-80
2021/05/29 04:10:25;;;;;;;8.87;7.93;;;9.20;66.20;10.70;101246.00;;;;5028195;28;20476;-81
2021/05/29 04:12:54;;;;;;;8.27;7.50;;;9.30;66.30;10.80;101235.00;;;;5030185;28;20464;-81
2021/05/29 04:15:24;;;;;;;8.03;7.33;;;9.40;65.20;10.80;101235.00;;;;5034409;28;20563;-82
2021/05/29 04:17:53;;;;;;;8.50;7.70;;;9.40;64.80;217.30;161342.00;;;;5029790;28;20461;-80
2021/05/29 04:20:25;;;;;;;7.10;6.40;;;9.50;64.60;10.80;101235.00;;;;5026842;28;20579;-81
2021/05/29 04:22:54;;;;;;;7.50;6.67;;;9.50;64.10;10.80;101243.00;;;;5029590;28;20463;-81
2021/05/29 04:25:25;;;;;;;10.53;6.83;;;9.60;64.00;10.80;101231.00;;;;5043860;28;20469;-81
2021/05/29 04:27:54;;;;;;;7.87;7.00;;;9.60;63.40;10.90;101243.00;;;;5028319;28;20508;-81
2021/05/29 04:30:24;;;;;;;7.73;6.70;;;9.70;63.30;10.90;101240.00;;;;5028165;28;20935;-80
2021/05/29 04:32:53;;;;;;;7.57;6.50;;;9.80;62.90;11.00;101246.00;;;;5028733;28;20571;-82
2021/05/29 04:35:22;;;;;;;6.23;5.63;;;9.90;62.80;11.10;101242.00;;;;5048806;28;20505;-80
2021/05/29 04:37:52;;;;;;;11.17;7.00;;;9.90;62.60;11.10;101242.00;;;;5036798;28;20829;-81
2021/05/29 04:40:24;;;;;;;7.60;6.67;;;10.10;60.40;11.20;101249.00;;;;5034861;28;20461;-80
2021/05/29 04:42:52;;;;;;;7.60;6.07;;;10.10;60.20;11.30;101247.00;;;;5041485;28;20433;-78
2021/05/29 04:45:21;;;;;;;7.60;6.90;;;10.20;59.90;11.40;101242.00;;;;5044377;28;20567;-79
2021/05/29 04:47:51;;;;;;;7.07;6.37;;;10.30;59.70;11.50;101245.00;;;;5038074;28;20453;-80
2021/05/29 04:50:21;;;;;;;7.73;6.93;;;10.40;59.20;11.60;101255.00;;;;5032065;28;20452;-80
2021/05/29 04:52:49;;;;;;;7.10;6.40;;;10.50;59.60;11.60;101261.00;;;;5033674;28;20555;-83
2021/05/29 04:55:19;;;;;;;6.63;5.93;;;10.70;59.30;11.70;101263.00;;;;5035939;28;20555;-76
2021/05/29 04:57:48;;;;;;;6.20;5.60;;;10.70;58.00;11.80;101262.00;;;;5031250;28;20549;-79
2021/05/29 05:00:18;;;;;;;5.87;5.30;;;10.80;56.90;11.90;101265.00;;;;5046375;28;20471;-82
2021/05/29 05:02:46;;;;;;;6.03;5.27;;;10.90;55.10;12.00;101277.00;;;;5046710;28;20448;-80
2021/05/29 05:05:14;;;;;;;6.70;5.17;;;11.00;54.60;12.10;101274.00;;;;5039955;28;20472;-77
2021/05/29 05:07:42;;;;;;;7.47;4.23;;;11.20;52.30;12.20;101266.00;;;;5046664;28;20448;-79
2021/05/29 05:10:12;;;;;;;5.60;4.37;;;11.30;51.70;12.30;101273.00;;;;5054135;28;20464;-81
2021/05/29 05:12:40;;;;;;;5.17;4.10;;;11.50;48.90;12.40;101275.00;;;;5035822;28;20557;-80
2021/05/29 05:15:11;;;;;;;6.10;4.33;;;11.70;47.10;12.50;101271.00;;;;5055606;28;20476;-81
2021/05/29 05:17:39;;;;;;;4.40;3.97;;;11.70;45.30;12.50;101275.00;;;;5044008;28;20461;-81
2021/05/29 05:20:08;;;;;;;4.13;3.57;;;11.80;43.40;12.60;101280.00;;;;5045439;28;20556;-81
2021/05/29 05:22:36;;;;;;;5.87;3.80;;;11.90;43.10;12.70;101288.00;;;;5039681;28;20456;-80
2021/05/29 05:25:07;;;;;;;4.33;3.93;;;12.00;42.30;12.80;101291.00;;;;5032253;28;20486;-80
2021/05/29 05:27:35;;;;;;;5.43;3.73;;;12.10;42.40;12.90;101279.00;;;;5033049;28;20452;-81
2021/05/29 05:30:06;;;;;;;7.37;3.80;;;12.20;39.50;13.00;101282.00;;;;5032308;28;20464;-81
2021/05/29 05:32:37;;;;;;;6.60;3.87;;;12.20;39.20;13.00;101274.00;;;;5030897;28;20480;-80
2021/05/29 05:35:08;;;;;;;4.53;4.13;;;12.40;39.40;13.10;101284.00;;;;5046969;28;20573;-80
2021/05/29 05:37:37;;;;;;;6.30;3.73;;;12.40;37.90;13.20;101302.00;;;;5037343;28;20873;-81
2021/05/29 05:40:08;;;;;;;5.83;3.53;;;12.50;37.30;13.30;101275.00;;;;5029392;28;20453;-80
2021/05/29 05:42:37;;;;;;;4.17;3.73;;;12.60;37.80;13.30;101291.00;;;;5031668;28;20467;-81
2021/05/29 05:45:07;;;;;;;3.33;3.03;;;12.70;36.30;13.40;101289.00;;;;5027983;28;20473;-82
2021/05/29 05:47:36;;;;;;;5.57;3.50;;;12.70;35.70;13.50;101281.00;;;;5028885;28;20487;-81
2021/05/29 05:50:08;;;;;;;4.20;3.67;;;12.80;35.00;13.60;101297.00;;;;5046910;28;20453;-80
2021/05/29 05:52:37;;;;;;;6.80;3.30;;;12.90;35.30;13.60;101291.00;;;;5031352;28;20555;-80
2021/05/29 05:55:09;;;;;;;3.83;3.10;;;12.90;35.30;13.70;101292.00;;;;5029954;28;20468;-80
2021/05/29 05:57:39;;;;;;;3.70;3.20;;;13.00;33.50;13.70;101283.00;;;;5030779;28;20598;-80
2021/05/29 06:00:09;;;;;;;3.73;3.03;;;13.10;33.50;13.80;101287.00;;;;5030684;28;20460;-80
2021/05/29 06:02:38;;;;;;;7.20;3.23;;;13.20;32.80;13.80;101303.00;;;;5031486;28;20998;-80
2021/05/29 06:05:08;;;;;;;6.10;3.10;;;13.20;31.10;13.90;101297.00;;;;5037161;28;20519;-81
2021/05/29 06:07:36;;;;;;;2.87;2.67;;;13.20;30.70;14.00;101304.00;;;;5045800;28;20471;-80
2021/05/29 06:10:06;;;;;;;4.60;3.57;;;13.30;31.40;14.00;101293.00;;;;5030549;28;20449;-80
2021/05/29 06:12:37;;;;;;;4.70;2.90;;;13.40;29.40;14.20;101306.00;;;;5028279;28;20650;-81
2021/05/29 06:18:04;;;;;;;4.70;2.47;;;13.70;28.70;14.30;101309.00;;;;5036503;28;20496;-81
2021/05/29 06:20:33;;;;;;;9.30;7.60;;;13.70;27.30;14.30;101310.00;;;;5040663;28;20487;-79
2021/05/29 06:23:01;;;;;;;7.67;5.90;;;13.80;27.80;14.50;101307.00;;;;5036658;28;21398;-79
2021/05/29 06:25:29;;;;;;;3.00;2.40;;;13.90;27.90;14.50;101305.00;;;;5040196;28;20472;-80
2021/05/29 06:27:57;;;;;;;3.67;2.67;;;14.00;25.00;217.30;162957.00;;;;5050741;28;20463;-81
2021/05/29 06:30:25;;;;;;;5.13;2.50;;;14.00;23.80;14.60;101313.00;;;;5029820;28;20484;-80
2021/05/29 06:32:54;;;;;;;3.93;2.93;;;14.00;25.20;14.60;101316.00;;;;5048088;28;20575;-80
2021/05/29 06:35:22;;;;;;;2.13;1.93;;;14.10;24.60;14.60;101320.00;;;;5036476;28;20563;-81
2021/05/29 06:37:50;;;;;;;3.63;1.87;;;14.10;23.50;14.70;101314.00;;;;5029439;28;20565;-82
2021/05/29 06:40:18;;;;;;;2.50;2.30;;;14.10;23.90;14.80;101319.00;;;;5029663;28;20469;-79
2021/05/29 06:42:46;;;;;;;3.33;2.40;;;14.20;23.90;14.90;101321.00;;;;5028047;28;20996;-79
2021/05/29 06:45:15;;;;;;;8.20;4.67;;;14.30;24.10;15.00;101323.00;;;;5027070;28;20587;-79
2021/05/29 06:47:43;;;;;;;5.20;3.90;;;14.50;23.90;15.10;101311.00;;;;5028316;28;20515;-77
2021/05/29 06:50:12;;;;;;;2.90;2.10;;;14.60;19.90;15.20;101327.00;;;;5045480;28;20529;-79
2021/05/29 06:52:44;;;;;;;4.37;2.13;;;14.80;21.30;15.30;101324.00;;;;5027052;28;20484;-78
2021/05/29 07:00:45;;;;;;;2.43;1.70;;;14.80;19.80;15.40;101321.00;;;;5034373;28;20471;-78
2021/05/29 07:03:13;;;;;;;4.27;2.07;;;15.00;18.10;15.40;101307.00;;;;5030013;28;20453;-80
2021/05/29 07:05:42;;;;;;;3.30;2.67;;;14.90;16.80;15.50;101312.00;;;;5029076;28;20554;-82
2021/05/29 07:08:11;;;;;;;2.47;1.83;;;15.00;14.70;15.50;101315.00;;;;5027967;28;20471;-81
2021/05/29 07:10:38;;;;;;;4.10;2.15;;;15.10;16.30;15.80;101313.00;;;;5026424;28;20454;-80
2021/05/29 07:13:06;;;;;;;3.63;2.40;;;15.20;14.80;16.10;101319.00;;;;5027234;28;20423;-78
2021/05/29 07:15:36;;;;;;;4.93;2.20;;;15.40;13.60;16.20;101326.00;;;;5032025;28;20423;-79
2021/05/29 07:18:08;;;;;;;3.00;1.90;;;15.60;13.00;16.10;101319.00;;;;5044482;28;20741;-81
2021/05/29 07:20:36;;;;;;;4.30;3.15;;;15.70;11.80;16.30;101325.00;;;;5025599;28;20461;-78
2021/05/29 07:23:05;;;;;;;4.82;2.70;;;15.80;12.90;16.50;101333.00;;;;5027350;28;20423;-79
2021/05/29 07:25:34;;;;;;;3.85;2.00;;;16.00;12.40;16.50;101325.00;;;;5026985;28;20427;-78
2021/05/29 07:28:02;;;;;;;6.78;3.00;;;16.10;12.10;16.60;101329.00;;;;5029394;28;20511;-79
2021/05/29 07:30:30;;;;;;;3.80;2.25;;;16.10;10.70;16.70;101337.00;;;;5029615;28;20502;-81
2021/05/29 07:32:58;;;;;;;3.30;2.10;;;16.30;10.60;16.80;101327.00;;;;5027817;28;20430;-80
2021/05/29 07:35:28;;;;;;;3.55;2.10;;;16.40;9.10;16.80;101329.00;;;;5027413;28;20438;-79
2021/05/29 07:37:56;;;;;;;3.72;2.20;;;16.40;8.10;16.90;101329.00;;;;5034516;28;20437;-80
2021/05/29 07:40:25;;;;;;;2.92;2.00;;;16.50;6.10;16.90;101323.00;;;;5027428;28;20423;-79
2021/05/29 07:42:53;;;;;;;3.17;2.00;;;16.50;3.90;17.00;101314.00;;;;5039919;28;20558;-81
2021/05/29 07:45:21;;;;;;;3.38;2.20;;;16.50;2.80;17.10;101324.00;;;;5036702;28;20502;-80
2021/05/29 07:47:49;;;;;;;4.00;2.10;;;16.60;4.10;217.30;164100.00;;;;5037753;28;20437;-81
2021/05/29 07:50:17;;;;;;;3.60;2.20;;;16.60;4.60;17.10;101322.00;;;;5039357;28;20505;-81
2021/05/29 07:52:46;;;;;;;3.33;1.90;;;16.60;3.10;17.10;101318.00;;;;5033578;28;20844;-81
2021/05/29 07:55:14;;;;;;;3.40;2.47;;;16.60;2.90;17.20;101321.00;;;;5029412;28;20423;-82
2021/05/29 07:57:43;;;;;;;4.00;1.92;;;16.80;3.90;17.30;101329.00;;;;5028783;28;20420;-81
2021/05/29 08:00:16;;;;;;;3.43;2.30;;;16.80;1.00;17.30;101314.00;;;;5028214;28;20435;-81
2021/05/29 08:02:44;;;;;;;3.20;1.80;;;16.80;1.10;17.10;101325.00;;;;5031591;28;20461;-82
2021/05/29 08:05:16;;;;;;;2.00;1.67;;;16.80;2.20;17.00;101322.00;;;;5030049;28;20496;-81
2021/05/29 08:07:45;;;;;;;2.17;1.97;;;16.60;1.90;17.10;101330.00;;;;5032574;28;20432;-81
2021/05/29 08:10:13;;;;;;;2.73;1.50;;;16.70;3.80;17.20;101327.00;;;;5032081;28;20491;-82
2021/05/29 08:12:43;;;;;;;4.17;2.20;;;16.80;1.00;17.20;101335.00;;;;5037826;28;20465;-81
2021/05/29 08:15:14;;;;;;;2.23;1.70;;;16.90;1.60;17.30;101328.00;;;;5029335;28;20475;-81
2021/05/29 08:17:42;;;;;;;2.47;1.50;;;17.00;1.00;17.20;101316.00;;;;5027773;28;20551;-78
2021/05/29 08:20:12;;;;;;;2.30;2.07;;;17.00;1.50;17.30;101338.00;;;;5027565;28;20568;-79
2021/05/29 08:22:40;;;;;;;3.67;1.80;;;17.00;1.00;17.40;101337.00;;;;5037128;28;20437;-80
2021/05/29 08:25:10;;;;;;;2.80;1.87;;;17.10;1.00;17.40;101332.00;;;;5042647;28;20973;-79
2021/05/29 08:27:38;;;;;;;2.30;1.90;;;17.10;1.00;17.50;101335.00;;;;5032799;28;20548;-79
2021/05/29 08:30:09;;;;;;;2.20;1.50;;;17.10;1.70;17.50;101334.00;;;;5033097;28;20556;-80
2021/05/29 08:32:37;;;;;;;2.30;1.70;;;17.20;1.00;17.60;101336.00;;;;5031878;28;20560;-78
2021/05/29 08:35:07;;;;;;;2.30;1.57;;;17.40;1.00;17.80;101336.00;;;;5033793;28;20495;-82
2021/05/29 08:37:35;;;;;;;3.97;1.80;;;17.50;1.00;17.80;101333.00;;;;5041229;28;20488;-82
2021/05/29 08:40:05;;;;;;;1.70;1.40;;;17.50;1.00;17.80;101328.00;;;;5059499;28;20482;-82
2021/05/29 08:42:33;;;;;;;3.17;2.57;;;17.60;1.00;17.90;101352.00;;;;5045877;28;20517;-82
2021/05/29 08:45:01;;;;;;;1.97;1.47;;;17.70;1.00;17.90;101341.00;;;;5058411;28;20467;-80
2021/05/29 08:47:30;;;;;;;2.40;1.60;;;17.70;1.00;17.90;101331.00;;;;5044110;28;20491;-81
2021/05/29 08:49:58;;;;;;;2.07;1.67;;;17.60;1.00;18.00;101339.00;;;;5044147;28;20506;-81
2021/05/29 08:52:26;;;;;;;4.50;1.70;;;17.80;1.00;18.00;101352.00;;;;5061373;28;21031;-80
2021/05/29 08:54:57;;;;;;;2.93;1.70;;;17.80;1.00;18.10;101342.00;;;;5045546;28;20452;-80
2021/05/29 08:57:25;;;;;;;3.10;1.80;;;17.80;1.00;18.20;101344.00;;;;5032158;28;20481;-80
2021/05/29 08:59:54;;;;;;;3.13;1.60;;;17.90;1.00;18.40;101358.00;;;;5033918;28;20468;-80
2021/05/29 09:02:22;;;;;;;5.90;2.03;;;18.10;1.00;18.10;101348.00;;;;5050599;28;20507;-81
2021/05/29 09:05:05;;;;;;;2.03;1.40;;;17.90;1.00;18.50;101339.00;;;;5053865;28;20467;-80
2021/05/29 09:07:33;;;;;;;5.50;2.10;;;18.10;1.00;18.30;101360.00;;;;5041694;28;20527;-81
2021/05/29 09:10:22;;;;;;;3.67;1.77;;;17.90;1.00;18.40;101342.00;;;;5040252;28;20460;-83
2021/05/29 09:13:02;;;;;;;6.80;5.07;;;17.90;1.00;18.70;101351.00;;;;5041872;28;20473;-80
2021/05/29 09:15:42;;;;;;;3.53;2.10;;;18.20;1.00;19.20;101346.00;;;;5037542;28;20542;-80
2021/05/29 09:18:25;;;;;;;3.88;3.17;;;18.60;1.00;19.60;101342.00;;;;5036893;28;20422;-81
2021/05/29 09:20:55;;;;;;;2.03;1.70;;;18.80;1.00;19.60;101330.00;;;;5032560;28;20473;-79
2021/05/29 09:23:23;;;;;;;4.45;2.15;;;18.90;1.00;19.60;101343.00;;;;5048951;28;20431;-79
2021/05/29 09:25:53;;;;;;;3.50;2.70;;;19.00;1.00;19.70;101349.00;;;;5049068;28;20425;-81
2021/05/29 09:28:28;;;;;;;3.50;2.20;;;19.00;1.00;19.70;101337.00;;;;5032189;28;20426;-80
2021/05/29 09:30:56;;;;;;;2.20;1.58;;;19.10;1.00;19.60;101336.00;;;;5034714;28;20448;-81
2021/05/29 09:33:27;;;;;;;3.10;1.40;;;19.10;1.00;19.30;101349.00;;;;5032651;28;20423;-80
2021/05/29 09:35:59;;;;;;;2.13;1.60;;;18.90;1.00;19.20;101349.00;;;;5033452;28;20447;-80
2021/05/29 09:38:34;;;;;;;1.73;1.50;;;18.90;1.00;19.10;101349.00;;;;5035470;28;20190;-80
2021/05/29 09:41:03;;;;;;;3.20;2.90;;;18.90;1.00;19.20;101357.00;;;;5033980;28;20518;-80
2021/05/29 09:43:53;;;;;;;2.27;2.07;;;19.00;1.00;19.10;101357.00;;;;5050650;28;20213;-80
2021/05/29 09:46:22;;;;;;;2.60;2.40;;;18.80;1.00;19.00;101360.00;;;;5035550;28;20608;-80
2021/05/29 09:48:58;;;;;;;2.27;2.03;;;18.80;1.00;19.00;101341.00;;;;5036702;28;20455;-81
2021/05/29 09:51:31;;;;;;;2.13;1.67;;;18.90;1.00;19.20;101344.00;;;;5037071;28;20535;-81
2021/05/29 09:54:08;;;;;;;2.58;1.80;;;18.80;1.00;19.60;101340.00;;;;5039733;28;20461;-81
2021/05/29 09:56:40;;;;;;;3.60;1.93;;;19.20;1.00;19.60;101341.00;;;;5043946;28;21092;-80
2021/05/29 09:59:10;;;;;;;2.73;1.80;;;19.40;1.00;19.40;101339.00;;;;5042629;28;20452;-81
2021/05/29 10:01:45;;;;;;;2.70;1.77;;;19.30;1.00;19.10;101358.00;;;;5055003;28;20464;-81
2021/05/29 10:04:17;;;;;;;2.20;1.53;;;18.90;1.00;19.10;101346.00;;;;5050135;28;20466;-81
2021/05/29 10:06:56;;;;;;;1.33;1.13;;;18.90;1.00;19.30;101343.00;;;;5053906;28;20502;-82
2021/05/29 10:09:24;;;;;;;2.00;1.30;;;19.00;1.00;19.50;101344.00;;;;5053240;28;20429;-80
2021/05/29 10:11:52;;;;;;;2.27;1.00;;;19.20;1.00;19.60;101344.00;;;;5049982;28;20461;-81
2021/05/29 10:14:21;;;;;;;2.93;1.70;;;19.60;1.00;19.80;101340.00;;;;5047656;28;20462;-80
2021/05/29 10:16:49;;;;;;;2.30;1.40;;;19.60;1.00;20.00;101329.00;;;;5046372;28;20514;-80
2021/05/29 10:19:21;;;;;;;1.65;1.25;;;19.80;1.00;20.30;101316.00;;;;5042993;28;20454;-80
2021/05/29 10:21:49;;;;;;;2.63;1.70;;;20.10;1.00;20.00;101335.00;;;;5042393;28;20423;-81
2021/05/29 10:24:20;;;;;;;4.60;2.78;;;19.80;1.00;20.50;101331.00;;;;5050022;28;20429;-78
2021/05/29 10:26:49;;;;;;;1.60;1.30;;;20.10;1.00;20.70;101327.00;;;;5053165;28;20415;-78
2021/05/29 10:29:18;;;;;;;2.53;1.40;;;20.30;1.00;52.70;165711.00;;;;5048163;28;20462;-79
2021/05/29 10:31:46;;;;;;;1.98;1.50;;;20.50;1.00;20.80;101332.00;;;;5058943;28;20420;-81
2021/05/29 10:34:14;;;;;;;2.90;1.40;;;20.30;1.00;20.30;101336.00;;;;5050856;28;20269;-82
2021/05/29 10:36:47;;;;;;;1.85;1.10;;;20.00;1.00;20.10;101336.00;;;;5042025;28;20454;-78
2021/05/29 10:39:23;;;;;;;1.93;1.30;;;19.70;1.00;20.10;101337.00;;;;5041117;28;20212;-78
2021/05/29 10:42:02;;;;;;;1.90;1.20;;;19.60;1.00;20.10;101339.00;;;;5036465;28;20484;-81
2021/05/29 10:44:39;;;;;;;2.00;1.40;;;19.50;1.00;20.30;101319.00;;;;5035439;28;20447;-80
2021/05/29 10:47:14;;;;;;;2.47;1.80;;;19.60;1.00;20.90;101325.00;;;;5032222;28;20505;-81
2021/05/29 10:50:00;;;;;;;2.00;1.60;;;20.20;1.00;21.00;101328.00;;;;5028440;28;20512;-79
2021/05/29 10:52:50;;;;;;;2.50;1.70;;;20.50;1.00;21.10;101324.00;;;;5028887;28;20433;-81
2021/05/29 10:55:28;;;;;;;3.05;1.60;;;20.70;1.00;21.20;101318.00;;;;5043318;28;20469;-78
2021/05/29 10:58:01;;;;;;;2.13;1.50;;;20.70;1.00;21.50;101318.00;;;;5026773;28;20406;-79
2021/05/29 11:00:50;;;;;;;3.50;1.73;;;21.00;1.00;21.20;101325.00;;;;5045266;28;20289;-78
2021/05/29 11:03:31;;;;;;;2.70;1.50;;;20.60;1.00;20.50;101322.00;;;;5023018;28;20429;-80
2021/05/29 11:06:01;;;;;;;2.97;1.40;;;20.10;1.00;20.10;101316.00;;;;5025589;28;20317;-83
2021/05/29 11:08:52;;;;;;;2.23;1.40;;;19.70;1.00;19.50;101305.00;;;;5042924;28;20472;-77
2021/05/29 11:12:08;;;;;;;2.20;1.67;;;19.10;1.00;19.90;101298.00;;;;5026843;28;20453;-82